createdAt,value
2019-05-05T00:00:44.642Z,0.08
2019-05-05T00:01:45.146Z,0.04
2019-05-05T00:02:44.838Z,0.02
2019-05-05T00:03:44.941Z,0.13
2019-05-05T00:04:45.529Z,0.07
2019-05-05T00:05:45.256Z,0.34
2019-05-05T00:06:44.609Z,0.38
2019-05-05T00:07:45.587Z,0.34
2019-05-05T00:08:45.648Z,0.33
2019-05-05T00:09:45.956Z,0.19
2019-05-05T00:10:45.267Z,0.15
2019-05-05T00:11:46.238Z,0.17
2019-05-05T00:12:45.409Z,0.12
2019-05-05T00:13:45.636Z,0.10
2019-05-05T00:14:45.832Z,0.17
2019-05-05T00:15:46.070Z,0.15
2019-05-05T00:16:46.260Z,0.07
2019-05-05T00:17:46.493Z,-0.12
2019-05-05T00:18:46.751Z,-0.01
2019-05-05T00:19:46.862Z,0.04
2019-05-05T00:20:47.052Z,0.04
2019-05-05T00:21:47.252Z,0.04
2019-05-05T00:22:47.465Z,-0.06
2019-05-05T00:23:48.188Z,-0.02
2019-05-05T00:24:48.191Z,-0.01
2019-05-05T00:25:48.687Z,0.13
2019-05-05T00:26:48.126Z,0.17
2019-05-05T00:27:48.312Z,0.19
2019-05-05T00:28:48.501Z,0.25
2019-05-05T00:29:48.722Z,0.31
2019-05-05T00:30:48.925Z,0.34
2019-05-05T00:31:49.126Z,0.23
2019-05-05T00:32:49.364Z,0.23
2019-05-05T00:33:49.624Z,0.22
2019-05-05T00:34:50.684Z,0.20
2019-05-05T00:35:51.691Z,0.20
2019-05-05T00:37:25.695Z,0.34
2019-05-05T00:37:51.207Z,0.34
2019-05-05T00:38:51.527Z,0.34
2019-05-05T00:39:50.693Z,0.33
2019-05-05T00:40:51.712Z,0.33
2019-05-05T00:41:51.713Z,0.33
2019-05-05T00:42:51.742Z,0.22
2019-05-05T00:43:52.240Z,0.17
2019-05-05T00:44:51.822Z,0.22
2019-05-05T00:45:52.007Z,0.22
2019-05-05T00:46:52.225Z,0.23
2019-05-05T00:47:54.364Z,0.20
2019-05-05T00:48:52.548Z,0.13
2019-05-05T00:49:52.778Z,0.30
2019-05-05T00:50:52.980Z,0.25
2019-05-05T00:51:54.653Z,0.25
2019-05-05T00:52:55.083Z,0.19
2019-05-05T00:53:55.491Z,0.20
2019-05-05T00:54:55.578Z,0.17
2019-05-05T00:55:54.700Z,0.04
2019-05-05T00:56:55.182Z,0.07
2019-05-05T00:57:54.905Z,0.01
2019-05-05T00:58:55.498Z,-0.02
2019-05-05T00:59:54.652Z,-0.12
2019-05-05T01:00:54.913Z,-0.12
2019-05-05T01:01:56.015Z,-0.17
2019-05-05T01:02:55.187Z,-0.12
2019-05-05T01:03:55.391Z,-0.17
2019-05-05T01:04:55.541Z,-0.03
2019-05-05T01:05:55.744Z,-0.17
2019-05-05T01:06:55.949Z,-0.17
2019-05-05T01:07:56.162Z,-0.08
2019-05-05T01:08:56.387Z,-0.16
2019-05-05T01:09:56.595Z,-0.20
2019-05-05T01:10:56.809Z,-0.12
2019-05-05T01:12:15.927Z,-0.12
2019-05-05T01:12:57.262Z,-0.06
2019-05-05T01:13:57.508Z,-0.06
2019-05-05T01:14:57.604Z,-0.06
2019-05-05T01:15:58.814Z,-0.03
2019-05-05T01:16:58.008Z,0.01
2019-05-05T01:17:58.131Z,0.10
2019-05-05T01:18:58.346Z,0.05
2019-05-05T01:20:03.706Z,0.02
2019-05-05T01:21:00.692Z,0.02
2019-05-05T01:21:58.936Z,0.02
2019-05-05T01:22:59.105Z,0.02
2019-05-05T01:23:59.366Z,-0.08
2019-05-05T01:24:59.427Z,-0.03
2019-05-05T01:25:59.650Z,-0.13
2019-05-05T01:26:59.823Z,-0.05
2019-05-05T01:28:00.015Z,-0.19
2019-05-05T01:29:00.206Z,-0.06
2019-05-05T01:30:00.365Z,-0.13
2019-05-05T01:31:00.542Z,0.04
2019-05-05T01:32:00.721Z,-0.09
2019-05-05T01:33:00.904Z,-0.06
2019-05-05T01:34:01.096Z,0.01
2019-05-05T01:35:01.266Z,0.02
2019-05-05T01:36:01.440Z,0.02
2019-05-05T01:37:01.587Z,-0.02
2019-05-05T01:38:01.757Z,0.05
2019-05-05T01:39:04.135Z,-0.01
2019-05-05T01:40:02.196Z,0.02
2019-05-05T01:41:04.187Z,0.10
2019-05-05T01:42:04.776Z,0.01
2019-05-05T01:43:02.697Z,0.12
2019-05-05T01:44:04.866Z,0.04
2019-05-05T01:45:04.567Z,0.08
2019-05-05T01:46:05.022Z,0.16
2019-05-05T01:47:05.341Z,0.22
2019-05-05T01:48:04.961Z,0.22
2019-05-05T01:49:05.445Z,0.23
2019-05-05T01:50:17.682Z,0.22
2019-05-05T01:51:06.080Z,0.23
2019-05-05T01:52:04.420Z,0.31
2019-05-05T01:53:05.412Z,0.34
2019-05-05T01:54:05.209Z,0.40
2019-05-05T01:55:05.789Z,0.49
2019-05-05T01:56:05.047Z,0.33
2019-05-05T01:57:05.573Z,0.37
2019-05-05T01:58:06.299Z,0.26
2019-05-05T01:59:05.458Z,0.28
2019-05-05T02:00:05.679Z,0.28
2019-05-05T02:01:05.837Z,0.25
2019-05-05T02:02:05.981Z,0.13
2019-05-05T02:03:06.132Z,0.22
2019-05-05T02:04:06.306Z,0.19
2019-05-05T02:05:06.509Z,0.25
2019-05-05T02:06:06.696Z,0.22
2019-05-05T02:07:07.759Z,0.33
2019-05-05T02:08:08.728Z,0.26
2019-05-05T02:09:07.221Z,0.22
2019-05-05T02:10:07.402Z,0.20
2019-05-05T02:11:07.555Z,0.10
2019-05-05T02:12:07.741Z,0.08
2019-05-05T02:13:07.954Z,0.08
2019-05-05T02:14:08.091Z,0.13
2019-05-05T02:15:08.287Z,0.15
2019-05-05T02:16:08.480Z,0.08
2019-05-05T02:17:08.618Z,-0.03
2019-05-05T02:18:08.790Z,0.05
2019-05-05T02:19:08.967Z,0.10
2019-05-05T02:20:09.146Z,0.08
2019-05-05T02:21:09.338Z,0.22
2019-05-05T02:22:09.499Z,0.19
2019-05-05T02:23:09.666Z,0.22
2019-05-05T02:24:09.840Z,0.22
2019-05-05T02:25:10.011Z,0.28
2019-05-05T02:26:10.210Z,0.26
2019-05-05T02:27:10.381Z,0.19
2019-05-05T02:28:10.515Z,0.08
2019-05-05T02:29:11.697Z,0.13
2019-05-05T02:30:10.837Z,0.20
2019-05-05T02:31:11.049Z,0.31
2019-05-05T02:32:11.213Z,0.23
2019-05-05T02:33:11.361Z,0.13
2019-05-05T02:34:11.527Z,0.07
2019-05-05T02:35:11.696Z,0.12
2019-05-05T02:36:11.895Z,0.08
2019-05-05T02:37:12.078Z,0.19
2019-05-05T02:38:15.395Z,0.08
2019-05-05T02:39:16.004Z,0.17
2019-05-05T02:40:15.619Z,0.08
2019-05-05T02:41:15.494Z,0.16
2019-05-05T02:42:14.637Z,0.12
2019-05-05T02:43:15.068Z,0.12
2019-05-05T02:44:15.439Z,0.26
2019-05-05T02:45:15.503Z,0.26
2019-05-05T02:46:14.871Z,0.17
2019-05-05T02:47:15.531Z,0.30
2019-05-05T02:48:15.640Z,0.13
2019-05-05T02:49:15.292Z,0.12
2019-05-05T02:50:15.696Z,0.12
2019-05-05T02:51:15.878Z,0.12
2019-05-05T02:52:15.299Z,0.15
2019-05-05T02:53:16.311Z,0.15
2019-05-05T02:54:15.452Z,0.17
2019-05-05T02:55:15.627Z,0.08
2019-05-05T02:56:15.816Z,0.16
2019-05-05T02:57:16.006Z,0.16
2019-05-05T02:58:16.221Z,0.31
2019-05-05T02:59:16.413Z,0.31
2019-05-05T03:00:16.614Z,0.20
2019-05-05T03:01:16.858Z,0.08
2019-05-05T03:02:17.113Z,0.13
2019-05-05T03:03:17.369Z,-0.01
2019-05-05T03:04:17.436Z,-0.03
2019-05-05T03:05:17.632Z,0.01
2019-05-05T03:06:17.829Z,0.08
2019-05-05T03:07:18.021Z,0.04
2019-05-05T03:08:18.235Z,0.07
2019-05-05T03:09:18.451Z,0.07
2019-05-05T03:10:18.647Z,0.07
2019-05-05T03:11:18.866Z,0.23
2019-05-05T03:12:19.058Z,0.25
2019-05-05T03:13:19.307Z,0.26
2019-05-05T03:14:19.413Z,0.30
2019-05-05T03:15:19.626Z,0.23
2019-05-05T03:16:19.866Z,0.31
2019-05-05T03:17:20.048Z,0.33
2019-05-05T03:18:20.269Z,0.40
2019-05-05T03:19:20.501Z,0.34
2019-05-05T03:20:20.751Z,0.49
2019-05-05T03:21:20.933Z,0.53
2019-05-05T03:22:21.129Z,0.53
2019-05-05T03:23:21.352Z,0.52
2019-05-05T03:24:23.497Z,0.63
2019-05-05T03:25:21.778Z,0.56
2019-05-05T03:26:23.395Z,0.56
2019-05-05T03:27:23.726Z,0.60
2019-05-05T03:28:24.004Z,0.60
2019-05-05T03:29:24.337Z,0.52
2019-05-05T03:30:25.789Z,0.56
2019-05-05T03:31:26.049Z,0.67
2019-05-05T03:32:25.453Z,0.70
2019-05-05T03:33:25.004Z,0.70
2019-05-05T03:34:24.524Z,0.71
2019-05-05T03:35:24.187Z,0.63
2019-05-05T03:36:24.932Z,0.72
2019-05-05T03:37:24.981Z,0.78
2019-05-05T03:38:25.291Z,0.75
2019-05-05T03:39:24.494Z,0.88
2019-05-05T03:40:24.713Z,0.86
2019-05-05T03:41:24.936Z,0.78
2019-05-05T03:42:25.123Z,0.74
2019-05-05T03:43:25.320Z,0.75
2019-05-05T03:44:25.514Z,0.78
2019-05-05T03:45:25.745Z,0.89
2019-05-05T03:46:25.989Z,0.90
2019-05-05T03:47:26.115Z,0.86
2019-05-05T03:48:27.107Z,0.88
2019-05-05T03:49:26.419Z,0.90
2019-05-05T03:50:26.585Z,0.95
2019-05-05T03:51:26.746Z,0.95
2019-05-05T03:52:26.890Z,0.90
2019-05-05T03:53:27.165Z,1.07
2019-05-05T03:54:27.273Z,1.02
2019-05-05T03:55:27.616Z,0.99
2019-05-05T03:56:27.711Z,1.07
2019-05-05T03:57:27.947Z,1.06
2019-05-05T03:58:28.147Z,1.00
2019-05-05T03:59:28.394Z,1.11
2019-05-05T04:00:28.519Z,1.08
2019-05-05T04:01:28.733Z,1.17
2019-05-05T04:02:28.954Z,1.08
2019-05-05T04:03:29.167Z,1.04
2019-05-05T04:04:29.389Z,1.06
2019-05-05T04:05:29.609Z,1.13
2019-05-05T04:06:29.826Z,1.11
2019-05-05T04:07:30.027Z,1.11
2019-05-05T04:08:30.260Z,1.06
2019-05-05T04:09:30.446Z,1.07
2019-05-05T04:10:30.630Z,1.24
2019-05-05T04:11:30.862Z,1.16
2019-05-05T04:12:31.045Z,1.18
2019-05-05T04:13:31.221Z,1.24
2019-05-05T04:14:31.397Z,1.16
2019-05-05T04:15:33.584Z,1.17
2019-05-05T04:16:31.788Z,1.14
2019-05-05T04:17:33.669Z,1.17
2019-05-05T04:18:34.077Z,1.25
2019-05-05T04:19:34.223Z,1.31
2019-05-05T04:20:33.746Z,1.35
2019-05-05T04:21:36.487Z,1.42
2019-05-05T04:22:34.434Z,1.32
2019-05-05T04:23:34.144Z,1.32
2019-05-05T04:24:34.137Z,1.36
2019-05-05T04:25:35.057Z,1.32
2019-05-05T04:26:34.682Z,1.46
2019-05-05T04:27:34.332Z,1.42
2019-05-05T04:28:34.982Z,1.50
2019-05-05T04:29:34.618Z,1.63
2019-05-05T04:30:35.375Z,1.60
2019-05-05T04:31:34.672Z,1.64
2019-05-05T04:32:35.786Z,1.42
2019-05-05T04:33:34.981Z,1.50
2019-05-05T04:34:35.174Z,1.60
2019-05-05T04:35:35.367Z,1.53
2019-05-05T04:36:35.550Z,1.53
2019-05-05T04:37:35.756Z,1.57
2019-05-05T04:38:35.966Z,1.71
2019-05-05T04:39:36.181Z,1.74
2019-05-05T04:40:36.392Z,1.82
2019-05-05T04:41:36.599Z,1.89
2019-05-05T04:42:36.831Z,1.98
2019-05-05T04:43:36.997Z,2.19
2019-05-05T04:44:37.171Z,2.27
2019-05-05T04:45:37.356Z,2.22
2019-05-05T04:46:37.604Z,2.11
2019-05-05T04:47:37.794Z,2.05
2019-05-05T04:48:37.977Z,2.04
2019-05-05T04:49:38.202Z,2.02
2019-05-05T04:50:38.410Z,2.14
2019-05-05T04:51:47.683Z,2.11
2019-05-05T04:52:40.758Z,2.04
2019-05-05T04:53:38.917Z,2.09
2019-05-05T04:54:39.104Z,2.02
2019-05-05T04:55:39.275Z,2.04
2019-05-05T04:56:39.478Z,2.07
2019-05-05T04:57:39.730Z,2.08
2019-05-05T04:58:39.935Z,1.98
2019-05-05T04:59:40.137Z,2.04
2019-05-05T05:00:40.305Z,1.88
2019-05-05T05:01:40.500Z,2.02
2019-05-05T05:02:40.722Z,2.07
2019-05-05T05:03:40.944Z,2.07
2019-05-05T05:04:41.139Z,2.02
2019-05-05T05:05:41.349Z,2.18
2019-05-05T05:06:43.511Z,2.08
2019-05-05T05:07:43.793Z,2.23
2019-05-05T05:08:41.934Z,2.02
2019-05-05T05:09:43.449Z,1.93
2019-05-05T05:10:43.773Z,1.88
2019-05-05T05:11:44.271Z,1.86
2019-05-05T05:12:43.558Z,1.82
2019-05-05T05:13:44.129Z,1.92
2019-05-05T05:14:44.249Z,2.04
2019-05-05T05:15:44.690Z,2.01
2019-05-05T05:16:44.444Z,2.09
2019-05-05T05:17:44.338Z,2.25
2019-05-05T05:18:44.790Z,2.26
2019-05-05T05:19:43.963Z,2.27
2019-05-05T05:20:44.413Z,2.27
2019-05-05T05:21:57.605Z,2.37
2019-05-05T05:22:45.427Z,2.32
2019-05-05T05:23:44.643Z,2.38
2019-05-05T05:24:45.745Z,2.45
2019-05-05T05:25:44.897Z,2.66
2019-05-05T05:26:45.088Z,2.68
2019-05-05T05:27:45.303Z,2.69
2019-05-05T05:28:45.528Z,2.71
2019-05-05T05:29:45.788Z,2.73
2019-05-05T05:30:46.755Z,2.83
2019-05-05T05:31:46.770Z,2.77
2019-05-05T05:32:46.742Z,2.73
2019-05-05T05:33:47.259Z,2.74
2019-05-05T05:34:46.434Z,2.83
2019-05-05T05:35:46.629Z,2.90
2019-05-05T05:36:46.847Z,2.97
2019-05-05T05:37:47.055Z,2.80
2019-05-05T05:38:47.218Z,2.69
2019-05-05T05:39:47.796Z,2.63
2019-05-05T05:40:48.264Z,2.77
2019-05-05T05:41:47.805Z,2.86
2019-05-05T05:42:48.725Z,2.98
2019-05-05T05:43:49.152Z,2.90
2019-05-05T05:44:48.365Z,2.98
2019-05-05T05:45:48.436Z,3.02
2019-05-05T05:46:48.657Z,3.07
2019-05-05T05:47:48.845Z,3.10
2019-05-05T05:48:49.033Z,3.07
2019-05-05T05:49:49.250Z,2.92
2019-05-05T05:50:50.280Z,3.10
2019-05-05T05:51:50.235Z,3.15
2019-05-05T05:52:50.768Z,3.34
2019-05-05T05:53:49.986Z,3.49
2019-05-05T05:54:50.143Z,3.50
2019-05-05T05:55:50.334Z,3.56
2019-05-05T05:56:50.561Z,3.56
2019-05-05T05:57:50.724Z,3.34
2019-05-05T05:58:50.897Z,3.12
2019-05-05T05:59:51.060Z,3.23
2019-05-05T06:00:51.259Z,3.44
2019-05-05T06:01:51.423Z,3.62
2019-05-05T06:02:51.652Z,3.63
2019-05-05T06:03:53.498Z,3.70
2019-05-05T06:04:53.769Z,3.84
2019-05-05T06:05:54.052Z,3.99
2019-05-05T06:06:54.261Z,3.88
2019-05-05T06:07:54.479Z,3.77
2019-05-05T06:08:54.402Z,3.67
2019-05-05T06:09:54.268Z,3.57
2019-05-05T06:10:54.861Z,3.50
2019-05-05T06:11:54.530Z,3.71
2019-05-05T06:12:54.790Z,3.56
2019-05-05T06:13:55.734Z,3.62
2019-05-05T06:14:54.109Z,3.59
2019-05-05T06:15:54.758Z,3.63
2019-05-05T06:16:54.405Z,3.70
2019-05-05T06:17:55.229Z,3.84
2019-05-05T06:18:54.744Z,3.90
2019-05-05T06:19:54.893Z,4.10
2019-05-05T06:20:55.034Z,3.92
2019-05-05T06:21:55.198Z,3.95
2019-05-05T06:22:56.224Z,3.88
2019-05-05T06:23:55.457Z,3.96
2019-05-05T06:24:55.583Z,4.02
2019-05-05T06:25:55.728Z,3.93
2019-05-05T06:26:55.907Z,4.14
2019-05-05T06:27:56.250Z,4.20
2019-05-05T06:28:56.281Z,4.29
2019-05-05T06:29:57.232Z,4.39
2019-05-05T06:30:56.738Z,4.26
2019-05-05T06:31:56.819Z,4.21
2019-05-05T06:32:57.749Z,4.17
2019-05-05T06:33:57.141Z,4.17
2019-05-05T06:34:57.271Z,4.29
2019-05-05T06:35:57.741Z,4.17
2019-05-05T06:36:57.671Z,4.24
2019-05-05T06:37:57.815Z,4.31
2019-05-05T06:38:58.736Z,4.29
2019-05-05T06:39:58.140Z,4.26
2019-05-05T06:40:58.311Z,4.14
2019-05-05T06:41:58.468Z,4.26
2019-05-05T06:42:58.743Z,4.34
2019-05-05T06:43:58.791Z,4.43
2019-05-05T06:44:59.726Z,4.47
2019-05-05T06:45:59.730Z,4.53
2019-05-05T06:47:00.234Z,4.64
2019-05-05T06:47:59.527Z,4.54
2019-05-05T06:48:59.751Z,4.53
2019-05-05T06:49:59.953Z,4.50
2019-05-05T06:51:00.743Z,4.54
2019-05-05T06:52:00.278Z,4.56
2019-05-05T06:53:00.750Z,4.54
2019-05-05T06:54:01.229Z,4.59
2019-05-05T06:55:03.635Z,4.61
2019-05-05T06:56:01.126Z,4.67
2019-05-05T06:57:04.329Z,4.72
2019-05-05T06:58:04.460Z,4.87
2019-05-05T06:59:01.519Z,4.94
2019-05-05T07:00:03.508Z,5.11
2019-05-05T07:01:03.604Z,5.08
2019-05-05T07:02:04.278Z,5.09
2019-05-05T07:03:07.320Z,4.96
2019-05-05T07:04:03.485Z,4.99
2019-05-05T07:05:04.154Z,5.15
2019-05-05T07:06:04.458Z,5.19
2019-05-05T07:07:05.106Z,5.11
2019-05-05T07:08:04.522Z,5.22
2019-05-05T07:09:05.487Z,5.12
2019-05-05T07:10:04.586Z,5.08
2019-05-05T07:11:04.170Z,5.05
2019-05-05T07:12:04.975Z,5.12
2019-05-05T07:13:04.946Z,5.11
2019-05-05T07:14:05.248Z,5.19
2019-05-05T07:15:04.422Z,5.05
2019-05-05T07:16:05.004Z,4.84
2019-05-05T07:17:05.815Z,4.93
2019-05-05T07:18:04.963Z,4.96
2019-05-05T07:19:05.732Z,5.08
2019-05-05T07:20:05.759Z,5.09
2019-05-05T07:21:05.546Z,5.22
2019-05-05T07:22:05.734Z,5.33
2019-05-05T07:23:06.741Z,5.27
2019-05-05T07:24:06.135Z,5.44
2019-05-05T07:25:06.325Z,5.42
2019-05-05T07:26:06.491Z,5.48
2019-05-05T07:27:06.754Z,5.30
2019-05-05T07:28:06.799Z,5.27
2019-05-05T07:29:07.731Z,5.26
2019-05-05T07:30:07.735Z,5.20
2019-05-05T07:31:07.778Z,5.24
2019-05-05T07:32:08.227Z,5.26
2019-05-05T07:33:08.233Z,5.27
2019-05-05T07:34:07.780Z,5.20
2019-05-05T07:35:08.004Z,5.24
2019-05-05T07:36:08.259Z,5.32
2019-05-05T07:37:09.273Z,5.30
2019-05-05T07:38:08.547Z,5.26
2019-05-05T07:39:09.282Z,5.23
2019-05-05T07:40:09.735Z,5.22
2019-05-05T07:41:09.246Z,5.17
2019-05-05T07:42:10.275Z,5.23
2019-05-05T07:43:09.413Z,5.02
2019-05-05T07:44:22.691Z,4.97
2019-05-05T07:45:20.267Z,5.02
2019-05-05T07:46:13.555Z,5.02
2019-05-05T07:47:10.736Z,5.11
2019-05-05T07:48:10.270Z,5.01
2019-05-05T07:49:11.258Z,5.11
2019-05-05T07:50:25.512Z,5.08
2019-05-05T07:51:14.113Z,4.96
2019-05-05T07:52:11.204Z,4.94
2019-05-05T07:53:14.843Z,4.79
2019-05-05T07:54:14.546Z,4.93
2019-05-05T07:55:11.692Z,4.99
2019-05-05T07:56:14.295Z,5.05
2019-05-05T07:57:12.055Z,5.12
2019-05-05T07:58:13.891Z,5.06
2019-05-05T07:59:14.505Z,4.96
2019-05-05T08:00:14.819Z,5.12
2019-05-05T08:01:14.151Z,5.20
2019-05-05T08:02:14.593Z,5.33
2019-05-05T08:03:14.449Z,5.56
2019-05-05T08:04:14.752Z,5.66
2019-05-05T08:05:14.097Z,5.87
2019-05-05T08:06:14.741Z,5.95
2019-05-05T08:07:15.271Z,6.16
2019-05-05T08:08:14.093Z,6.20
2019-05-05T08:09:14.933Z,6.21
2019-05-05T08:10:14.055Z,6.40
2019-05-05T08:11:14.856Z,6.48
2019-05-05T08:12:15.473Z,6.36
2019-05-05T08:13:15.267Z,6.43
2019-05-05T08:14:14.801Z,6.48
2019-05-05T08:15:14.975Z,6.48
2019-05-05T08:16:15.135Z,6.36
2019-05-05T08:17:16.269Z,6.14
2019-05-05T08:18:16.252Z,6.20
2019-05-05T08:19:15.648Z,5.90
2019-05-05T08:20:19.152Z,6.05
2019-05-05T08:21:16.010Z,6.10
2019-05-05T08:22:16.257Z,6.10
2019-05-05T08:23:29.234Z,6.19
2019-05-05T08:24:18.593Z,6.08
2019-05-05T08:25:16.712Z,6.05
2019-05-05T08:26:17.747Z,5.95
2019-05-05T08:27:20.875Z,5.83
2019-05-05T08:28:17.744Z,5.90
2019-05-05T08:29:17.419Z,6.08
2019-05-05T08:30:17.584Z,6.16
2019-05-05T08:31:18.740Z,6.32
2019-05-05T08:32:18.754Z,6.39
2019-05-05T08:33:18.750Z,6.48
2019-05-05T08:34:18.170Z,6.58
2019-05-05T08:35:18.362Z,6.64
2019-05-05T08:36:18.536Z,6.51
2019-05-05T08:37:18.734Z,6.58
2019-05-05T08:38:19.755Z,6.65
2019-05-05T08:39:21.478Z,6.69
2019-05-05T08:40:20.195Z,6.96
2019-05-05T08:41:19.354Z,6.91
2019-05-05T08:42:19.600Z,7.11
2019-05-05T08:43:19.690Z,7.15
2019-05-05T08:44:20.741Z,7.21
2019-05-05T08:45:23.527Z,7.33
2019-05-05T08:46:24.622Z,7.12
2019-05-05T08:47:20.374Z,7.26
2019-05-05T08:48:20.562Z,7.21
2019-05-05T08:49:21.247Z,7.08
2019-05-05T08:50:24.043Z,7.27
2019-05-05T08:51:24.687Z,7.23
2019-05-05T08:52:23.842Z,7.47
2019-05-05T08:53:21.540Z,7.55
2019-05-05T08:54:23.608Z,7.81
2019-05-05T08:55:21.921Z,7.82
2019-05-05T08:56:23.786Z,7.60
2019-05-05T08:57:23.616Z,7.84
2019-05-05T08:58:23.772Z,8.14
2019-05-05T08:59:24.217Z,8.34
2019-05-05T09:00:24.462Z,7.91
2019-05-05T09:01:24.046Z,7.15
2019-05-05T09:02:23.909Z,7.33
2019-05-05T09:03:24.406Z,7.54
2019-05-05T09:04:24.758Z,7.47
2019-05-05T09:05:24.689Z,7.48
2019-05-05T09:06:24.207Z,7.74
2019-05-05T09:07:25.021Z,7.89
2019-05-05T09:08:24.749Z,8.00
2019-05-05T09:09:24.794Z,7.88
2019-05-05T09:10:24.605Z,7.79
2019-05-05T09:11:24.781Z,7.92
2019-05-05T09:12:24.954Z,8.10
2019-05-05T09:13:25.146Z,7.88
2019-05-05T09:14:25.307Z,7.77
2019-05-05T09:15:25.525Z,7.70
2019-05-05T09:16:26.258Z,7.50
2019-05-05T09:17:28.049Z,7.24
2019-05-05T09:18:27.099Z,7.08
2019-05-05T09:19:26.225Z,6.91
2019-05-05T09:20:26.417Z,6.73
2019-05-05T09:21:27.303Z,6.30
2019-05-05T09:22:26.826Z,5.99
2019-05-05T09:23:27.023Z,5.87
2019-05-05T09:24:27.191Z,5.65
2019-05-05T09:25:27.384Z,5.96
2019-05-05T09:26:27.785Z,5.92
2019-05-05T09:27:28.391Z,6.01
2019-05-05T09:28:28.900Z,6.06
2019-05-05T09:29:28.050Z,6.10
2019-05-05T09:30:28.758Z,6.24
2019-05-05T09:31:28.765Z,6.45
2019-05-05T09:32:28.519Z,6.46
2019-05-05T09:33:28.680Z,6.75
2019-05-05T09:34:28.856Z,6.86
2019-05-05T09:35:29.004Z,7.24
2019-05-05T09:36:29.219Z,7.41
2019-05-05T09:37:29.373Z,7.26
2019-05-05T09:38:30.305Z,7.52
2019-05-05T09:39:30.713Z,7.89
2019-05-05T09:40:30.774Z,8.04
2019-05-05T09:41:30.009Z,8.45
2019-05-05T09:42:30.181Z,8.55
2019-05-05T09:43:30.779Z,8.14
2019-05-05T09:44:30.527Z,7.96
2019-05-05T09:45:31.294Z,7.99
2019-05-05T09:46:33.947Z,8.12
2019-05-05T09:47:31.269Z,8.00
2019-05-05T09:48:33.422Z,7.99
2019-05-05T09:49:31.331Z,8.20
2019-05-05T09:50:31.496Z,8.42
2019-05-05T09:51:34.550Z,8.68
2019-05-05T09:52:33.783Z,8.97
2019-05-05T09:53:34.255Z,9.27
2019-05-05T09:54:34.385Z,9.49
2019-05-05T09:55:33.604Z,9.44
2019-05-05T09:56:33.902Z,8.94
2019-05-05T09:57:34.421Z,8.80
2019-05-05T09:58:34.780Z,8.96
2019-05-05T09:59:34.698Z,9.01
2019-05-05T10:00:33.767Z,9.23
2019-05-05T10:01:33.886Z,9.42
2019-05-05T10:02:34.578Z,9.44
2019-05-05T10:03:34.631Z,9.85
2019-05-05T10:04:33.779Z,10.13
2019-05-05T10:05:34.272Z,10.80
2019-05-05T10:06:35.143Z,11.23
2019-05-05T10:07:34.650Z,11.23
2019-05-05T10:08:35.473Z,10.93
2019-05-05T10:09:34.671Z,10.55
2019-05-05T10:10:34.718Z,10.07
2019-05-05T10:11:35.367Z,9.70
2019-05-05T10:12:36.052Z,9.92
2019-05-05T10:13:35.249Z,9.80
2019-05-05T10:14:35.333Z,9.48
2019-05-05T10:15:36.257Z,9.65
2019-05-05T10:16:35.657Z,9.98
2019-05-05T10:17:35.836Z,10.26
2019-05-05T10:18:36.265Z,10.35
2019-05-05T10:19:36.181Z,10.65
2019-05-05T10:20:36.367Z,11.53
2019-05-05T10:21:36.571Z,12.29
2019-05-05T10:22:37.264Z,13.03
2019-05-05T10:23:37.301Z,12.71
2019-05-05T10:24:37.058Z,12.52
2019-05-05T10:25:37.236Z,12.70
2019-05-05T10:26:37.410Z,13.24
2019-05-05T10:27:44.870Z,12.98
2019-05-05T10:28:39.711Z,12.19
2019-05-05T10:29:38.278Z,12.25
2019-05-05T10:30:38.118Z,12.54
2019-05-05T10:31:38.388Z,12.87
2019-05-05T10:32:38.449Z,12.40
2019-05-05T10:33:38.646Z,13.10
2019-05-05T10:34:39.771Z,13.04
2019-05-05T10:35:39.767Z,13.14
2019-05-05T10:36:39.417Z,12.58
2019-05-05T10:37:39.335Z,12.92
2019-05-05T10:38:39.516Z,12.52
2019-05-05T10:39:39.700Z,11.69
2019-05-05T10:40:39.922Z,10.84
2019-05-05T10:41:40.794Z,10.47
2019-05-05T10:42:40.321Z,10.46
2019-05-05T10:43:40.503Z,10.93
2019-05-05T10:44:40.686Z,11.06
2019-05-05T10:45:41.282Z,11.38
2019-05-05T10:46:41.125Z,11.93
2019-05-05T10:47:41.309Z,12.07
2019-05-05T10:48:44.441Z,11.93
2019-05-05T10:49:43.997Z,11.45
2019-05-05T10:50:44.261Z,11.87
2019-05-05T10:51:43.929Z,12.31
2019-05-05T10:52:44.294Z,11.33
2019-05-05T10:53:43.825Z,11.49
2019-05-05T10:54:44.909Z,12.61
2019-05-05T10:55:44.978Z,13.48
2019-05-05T10:56:44.342Z,13.96
2019-05-05T10:57:43.685Z,14.27
2019-05-05T10:58:44.821Z,14.41
2019-05-05T10:59:44.359Z,14.01
2019-05-05T11:00:44.388Z,13.51
2019-05-05T11:01:44.849Z,12.29
2019-05-05T11:02:43.965Z,11.72
2019-05-05T11:03:45.148Z,11.49
2019-05-05T11:05:05.267Z,11.66
2019-05-05T11:05:45.001Z,11.27
2019-05-05T11:06:45.680Z,11.02
2019-05-05T11:07:45.796Z,10.93
2019-05-05T11:08:45.233Z,11.45
2019-05-05T11:09:46.137Z,12.18
2019-05-05T11:10:45.344Z,12.29
2019-05-05T11:11:45.467Z,12.31
2019-05-05T11:12:45.627Z,11.96
2019-05-05T11:13:45.780Z,12.18
2019-05-05T11:14:45.941Z,11.85
2019-05-05T11:15:46.106Z,11.77
2019-05-05T11:16:46.302Z,11.48
2019-05-05T11:17:46.466Z,11.16
2019-05-05T11:18:46.666Z,11.05
2019-05-05T11:19:46.843Z,10.81
2019-05-05T11:20:46.995Z,10.54
2019-05-05T11:21:47.788Z,10.13
2019-05-05T11:22:47.371Z,9.35
2019-05-05T11:23:48.297Z,9.24
2019-05-05T11:24:59.964Z,9.17
2019-05-05T11:25:49.837Z,8.96
2019-05-05T11:26:47.984Z,8.73
2019-05-05T11:27:48.217Z,8.47
2019-05-05T11:28:48.436Z,8.49
2019-05-05T11:29:48.807Z,8.50
2019-05-05T11:30:48.855Z,8.68
2019-05-05T11:31:49.045Z,8.63
2019-05-05T11:32:49.243Z,8.50
2019-05-05T11:33:49.454Z,8.46
2019-05-05T11:34:49.695Z,8.52
2019-05-05T11:35:50.779Z,8.70
2019-05-05T11:36:50.061Z,8.93
2019-05-05T11:37:50.243Z,8.97
2019-05-05T11:38:50.422Z,9.34
2019-05-05T11:39:50.642Z,9.42
2019-05-05T11:40:50.825Z,9.06
2019-05-05T11:41:50.984Z,9.10
2019-05-05T11:42:51.178Z,9.37
2019-05-05T11:43:53.356Z,9.75
2019-05-05T11:44:51.511Z,9.91
2019-05-05T11:45:51.669Z,10.18
2019-05-05T11:46:51.834Z,10.68
2019-05-05T11:47:53.644Z,10.87
2019-05-05T11:48:54.213Z,10.81
2019-05-05T11:49:54.608Z,10.88
2019-05-05T11:50:54.192Z,10.68
2019-05-05T11:51:54.337Z,10.68
2019-05-05T11:52:54.504Z,10.69
2019-05-05T11:54:15.061Z,10.02
2019-05-05T11:55:08.173Z,9.62
2019-05-05T11:55:55.082Z,9.80
2019-05-05T11:56:55.285Z,9.81
2019-05-05T11:57:54.507Z,9.70
2019-05-05T11:58:55.058Z,9.55
2019-05-05T11:59:54.181Z,9.48
2019-05-05T12:00:54.744Z,9.45
2019-05-05T12:01:55.502Z,9.71
2019-05-05T12:02:55.303Z,9.77
2019-05-05T12:03:54.798Z,9.70
2019-05-05T12:04:54.932Z,9.63
2019-05-05T12:05:55.107Z,9.55
2019-05-05T12:06:55.268Z,9.52
2019-05-05T12:07:55.400Z,9.77
2019-05-05T12:08:56.319Z,9.55
2019-05-05T12:09:56.283Z,9.44
2019-05-05T12:10:55.935Z,9.83
2019-05-05T12:11:56.070Z,9.92
2019-05-05T12:12:56.221Z,9.93
2019-05-05T12:13:56.374Z,10.01
2019-05-05T12:14:56.521Z,10.01
2019-05-05T12:15:56.707Z,10.28
2019-05-05T12:16:56.872Z,10.75
2019-05-05T12:17:57.299Z,11.13
2019-05-05T12:18:57.185Z,11.48
2019-05-05T12:19:57.353Z,11.77
2019-05-05T12:20:57.803Z,11.72
2019-05-05T12:21:57.778Z,11.69
2019-05-05T12:22:57.925Z,11.36
2019-05-05T12:23:58.082Z,10.60
2019-05-05T12:24:58.227Z,10.09
2019-05-05T12:25:58.371Z,10.16
2019-05-05T12:26:58.558Z,10.07
2019-05-05T12:27:58.700Z,10.01
2019-05-05T12:28:58.866Z,10.18
2019-05-05T12:29:59.783Z,10.36
2019-05-05T12:30:59.289Z,10.58
2019-05-05T12:31:59.798Z,10.42
2019-05-05T12:32:59.675Z,10.63
2019-05-05T12:33:59.796Z,10.81
2019-05-05T12:34:59.961Z,10.94
2019-05-05T12:36:00.136Z,11.33
2019-05-05T12:37:00.337Z,11.01
2019-05-05T12:38:00.510Z,10.60
2019-05-05T12:39:00.687Z,10.39
2019-05-05T12:40:00.841Z,10.52
2019-05-05T12:41:00.980Z,10.86
2019-05-05T12:42:01.131Z,11.42
2019-05-05T12:43:03.535Z,12.00
2019-05-05T12:44:03.289Z,11.77
2019-05-05T12:45:01.562Z,12.00
2019-05-05T12:46:01.706Z,11.62
2019-05-05T12:47:03.402Z,11.46
2019-05-05T12:48:02.309Z,11.39
2019-05-05T12:49:02.226Z,11.30
2019-05-05T12:50:02.353Z,11.59
2019-05-05T12:51:04.186Z,11.93
2019-05-05T12:52:04.518Z,12.08
2019-05-05T12:53:04.035Z,12.73
2019-05-05T12:54:04.596Z,13.24
2019-05-05T12:55:05.040Z,13.98
2019-05-05T12:56:04.300Z,14.90
2019-05-05T12:57:04.388Z,14.64
2019-05-05T12:58:04.730Z,14.36
2019-05-05T12:59:03.974Z,14.63
2019-05-05T13:00:04.299Z,15.20
2019-05-05T13:01:05.326Z,16.07
2019-05-05T13:02:04.543Z,15.74
2019-05-05T13:03:04.689Z,14.59
2019-05-05T13:04:04.846Z,13.65
2019-05-05T13:05:05.016Z,13.38
2019-05-05T13:06:05.139Z,13.72
2019-05-05T13:07:08.193Z,14.53
2019-05-05T13:08:05.504Z,14.69
2019-05-05T13:09:05.656Z,15.71
2019-05-05T13:10:05.818Z,15.81
2019-05-05T13:11:05.950Z,15.27
2019-05-05T13:12:06.098Z,14.16
2019-05-05T13:13:06.208Z,12.71
2019-05-05T13:14:06.342Z,11.56
2019-05-05T13:15:06.503Z,11.51